sensor_id;sensor_type;location;lat;lon;timestamp;pressure;altitude;pressure_sealevel;temperature;humidity
31088;BME280;17745;55.914;37.554;2023-02-13T01:01:02;99245.34;;;-2.97;56.59
31088;BME280;17745;55.914;37.554;2023-02-13T01:03:58;99241.81;;;-2.96;56.64
31088;BME280;17745;55.914;37.554;2023-02-13T01:06:47;99250.88;;;-2.92;56.55
31088;BME280;17745;55.914;37.554;2023-02-13T01:09:26;99243.25;;;-2.93;56.59
31088;BME280;17745;55.914;37.554;2023-02-13T01:12:07;99240.16;;;-2.97;56.76
31088;BME280;17745;55.914;37.554;2023-02-13T01:15:04;99247.47;;;-2.92;56.74
31088;BME280;17745;55.914;37.554;2023-02-13T01:17:59;99243.09;;;-2.92;56.63
31088;BME280;17745;55.914;37.554;2023-02-13T01:20:28;99222.84;;;-2.88;56.67
31088;BME280;17745;55.914;37.554;2023-02-13T01:22:58;99222.84;;;-2.88;56.69
31088;BME280;17745;55.914;37.554;2023-02-13T01:25:39;99207.63;;;-2.91;56.79
31088;BME280;17745;55.914;37.554;2023-02-13T01:28:26;99213.94;;;-2.85;56.72
31088;BME280;17745;55.914;37.554;2023-02-13T01:30:59;99212.62;;;-2.81;56.52
31088;BME280;17745;55.914;37.554;2023-02-13T01:51:05;99156.06;;;-2.61;56.22
31088;BME280;17745;55.914;37.554;2023-02-13T01:54:05;99148.78;;;-2.66;56.19
31088;BME280;17745;55.914;37.554;2023-02-13T01:57:06;99145.53;;;-2.68;56.25
31088;BME280;17745;55.914;37.554;2023-02-13T02:00:10;99143.59;;;-2.66;56.06
31088;BME280;17745;55.914;37.554;2023-02-13T02:03:12;99135.66;;;-2.64;56.17
31088;BME280;17745;55.914;37.554;2023-02-13T02:52:15;99087.69;;;-2.68;56.08
31088;BME280;17745;55.914;37.554;2023-02-13T02:55:34;99090.28;;;-2.68;56.09
31088;BME280;17745;55.914;37.554;2023-02-13T02:58:37;99080.28;;;-2.71;56.28
31088;BME280;17745;55.914;37.554;2023-02-13T03:01:42;99069.69;;;-2.62;56.21
31088;BME280;17745;55.914;37.554;2023-02-13T03:04:46;99060.91;;;-2.52;56.13
31088;BME280;17745;55.914;37.554;2023-02-13T04:16:38;98967.94;;;-1.64;56.04
31088;BME280;17745;55.914;37.554;2023-02-13T04:19:37;98954.91;;;-1.70;56.26
31088;BME280;17745;55.914;37.554;2023-02-13T04:22:34;98950.69;;;-1.71;56.50
31088;BME280;17745;55.914;37.554;2023-02-13T04:25:38;98944.94;;;-1.67;56.62
31088;BME280;17745;55.914;37.554;2023-02-13T04:28:36;98936.25;;;-1.59;56.47
31088;BME280;17745;55.914;37.554;2023-02-13T04:31:09;98942.69;;;-1.55;56.44
31088;BME280;17745;55.914;37.554;2023-02-13T04:36:54;98929.56;;;-1.53;56.52
31088;BME280;17745;55.914;37.554;2023-02-13T04:39:23;98928.75;;;-1.54;56.80
31088;BME280;17745;55.914;37.554;2023-02-13T04:41:54;98915.69;;;-1.61;57.05
31088;BME280;17745;55.914;37.554;2023-02-13T04:44:30;98905.13;;;-1.59;57.23
31088;BME280;17745;55.914;37.554;2023-02-13T04:47:26;98916.41;;;-1.52;57.13
31088;BME280;17745;55.914;37.554;2023-02-13T04:50:17;98916.66;;;-1.47;57.10
31088;BME280;17745;55.914;37.554;2023-02-13T04:52:57;98895.53;;;-1.44;57.13
31088;BME280;17745;55.914;37.554;2023-02-13T04:55:32;98887.19;;;-1.39;57.13
31088;BME280;17745;55.914;37.554;2023-02-13T04:58:30;98890.59;;;-1.38;57.14
31088;BME280;17745;55.914;37.554;2023-02-13T05:01:11;98883.78;;;-1.39;57.19
31088;BME280;17745;55.914;37.554;2023-02-13T05:03:44;98886.22;;;-1.38;57.15
31088;BME280;17745;55.914;37.554;2023-02-13T05:06:38;98881.72;;;-1.44;57.30
31088;BME280;17745;55.914;37.554;2023-02-13T05:09:15;98883.16;;;-1.41;57.32
31088;BME280;17745;55.914;37.554;2023-02-13T05:11:53;98874.75;;;-1.44;57.39
31088;BME280;17745;55.914;37.554;2023-02-13T05:14:36;98877.34;;;-1.44;57.43
31088;BME280;17745;55.914;37.554;2023-02-13T05:17:25;98878.94;;;-1.42;57.42
31088;BME280;17745;55.914;37.554;2023-02-13T05:20:00;98870.34;;;-1.43;57.45
31088;BME280;17745;55.914;37.554;2023-02-13T05:22:29;98878.34;;;-1.45;57.47
31088;BME280;17745;55.914;37.554;2023-02-13T05:25:38;98862.56;;;-1.43;57.47
31088;BME280;17745;55.914;37.554;2023-02-13T05:28:17;98875.00;;;-1.38;57.50
31088;BME280;17745;55.914;37.554;2023-02-13T05:31:19;98859.50;;;-1.32;57.40
31088;BME280;17745;55.914;37.554;2023-02-13T05:34:18;98857.50;;;-1.30;57.39
31088;BME280;17745;55.914;37.554;2023-02-13T05:36:54;98866.19;;;-1.22;57.33
31088;BME280;17745;55.914;37.554;2023-02-13T05:39:29;98862.31;;;-1.11;57.19
31088;BME280;17745;55.914;37.554;2023-02-13T05:42:29;98851.72;;;-0.66;56.45
31088;BME280;17745;55.914;37.554;2023-02-13T05:45:03;98851.72;;;-0.66;56.45
31088;BME280;17745;55.914;37.554;2023-02-13T05:47:36;98866.31;;;-1.09;57.20
31088;BME280;17745;55.914;37.554;2023-02-13T05:50:24;98867.94;;;-1.08;57.28
31088;BME280;17745;55.914;37.554;2023-02-13T05:53:03;98860.97;;;-1.07;57.24
31088;BME280;17745;55.914;37.554;2023-02-13T05:55:46;98869.12;;;-1.10;57.41
31088;BME280;17745;55.914;37.554;2023-02-13T05:58:22;98851.56;;;-1.08;57.38
31088;BME280;17745;55.914;37.554;2023-02-13T06:00:55;98865.94;;;-1.06;57.51
31088;BME280;17745;55.914;37.554;2023-02-13T06:03:28;98856.69;;;-0.93;57.31
31088;BME280;17745;55.914;37.554;2023-02-13T06:05:58;98854.16;;;-0.87;57.31
31088;BME280;17745;55.914;37.554;2023-02-13T06:08:28;98849.19;;;-0.81;57.16
31088;BME280;17745;55.914;37.554;2023-02-13T06:10:57;98840.03;;;-0.77;57.08
31088;BME280;17745;55.914;37.554;2023-02-13T06:13:31;98858.03;;;-0.76;57.17
31088;BME280;17745;55.914;37.554;2023-02-13T06:16:03;98856.69;;;-0.72;57.20
31088;BME280;17745;55.914;37.554;2023-02-13T06:18:32;98855.50;;;-0.69;57.32
31088;BME280;17745;55.914;37.554;2023-02-13T06:21:15;98849.56;;;-0.63;57.10
31088;BME280;17745;55.914;37.554;2023-02-13T06:23:43;98854.97;;;-0.58;57.22
31088;BME280;17745;55.914;37.554;2023-02-13T06:26:12;98846.84;;;-0.48;57.06
31088;BME280;17745;55.914;37.554;2023-02-13T06:29:07;98848.53;;;-0.40;56.96
31088;BME280;17745;55.914;37.554;2023-02-13T06:31:50;98843.16;;;-0.32;56.86
31088;BME280;17745;55.914;37.554;2023-02-13T06:34:26;98835.22;;;-0.23;56.71
31088;BME280;17745;55.914;37.554;2023-02-13T06:36:56;98833.28;;;-0.15;56.64
31088;BME280;17745;55.914;37.554;2023-02-13T06:39:28;98817.31;;;-0.05;56.48
31088;BME280;17745;55.914;37.554;2023-02-13T06:42:05;98815.53;;;0.03;56.37
31088;BME280;17745;55.914;37.554;2023-02-13T06:44:58;98809.97;;;0.12;56.33
31088;BME280;17745;55.914;37.554;2023-02-13T06:47:40;98806.19;;;0.15;56.31
31088;BME280;17745;55.914;37.554;2023-02-13T06:50:10;98791.16;;;0.10;56.48
31088;BME280;17745;55.914;37.554;2023-02-13T06:52:45;98805.97;;;0.17;56.44
31088;BME280;17745;55.914;37.554;2023-02-13T06:55:16;98801.81;;;0.22;56.31
31088;BME280;17745;55.914;37.554;2023-02-13T06:58:13;98798.59;;;0.20;56.46
31088;BME280;17745;55.914;37.554;2023-02-13T07:00:48;98790.22;;;0.25;56.41
31088;BME280;17745;55.914;37.554;2023-02-13T07:03:19;98790.25;;;0.32;56.30
31088;BME280;17745;55.914;37.554;2023-02-13T07:05:51;98796.25;;;0.39;56.20
31088;BME280;17745;55.914;37.554;2023-02-13T07:08:34;98784.22;;;0.31;56.24
31088;BME280;17745;55.914;37.554;2023-02-13T07:11:05;98780.78;;;0.31;56.16
31088;BME280;17745;55.914;37.554;2023-02-13T07:13:55;98786.03;;;0.37;56.10
31088;BME280;17745;55.914;37.554;2023-02-13T07:16:47;98777.44;;;0.37;56.32
31088;BME280;17745;55.914;37.554;2023-02-13T07:19:23;98781.06;;;0.42;56.29
31088;BME280;17745;55.914;37.554;2023-02-13T07:22:22;98780.44;;;0.47;56.58
31088;BME280;17745;55.914;37.554;2023-02-13T07:25:07;98766.87;;;0.72;56.46
31088;BME280;17745;55.914;37.554;2023-02-13T07:28:00;98766.50;;;1.02;56.04
31088;BME280;17745;55.914;37.554;2023-02-13T07:31:06;98770.31;;;1.20;55.90
31088;BME280;17745;55.914;37.554;2023-02-13T07:34:22;98759.25;;;1.45;55.58
31088;BME280;17745;55.914;37.554;2023-02-13T07:37:08;98761.00;;;1.64;55.43
31088;BME280;17745;55.914;37.554;2023-02-13T07:40:06;98756.19;;;1.68;55.66
31088;BME280;17745;55.914;37.554;2023-02-13T07:43:06;98752.56;;;1.76;55.64
31088;BME280;17745;55.914;37.554;2023-02-13T07:46:21;98743.66;;;1.90;55.58
31088;BME280;17745;55.914;37.554;2023-02-13T08:00:17;98744.28;;;1.85;55.39
31088;BME280;17745;55.914;37.554;2023-02-13T08:03:08;98737.25;;;1.86;55.64
31088;BME280;17745;55.914;37.554;2023-02-13T08:06:02;98744.06;;;1.94;55.37
31088;BME280;17745;55.914;37.554;2023-02-13T08:08:58;98744.22;;;1.99;55.40
31088;BME280;17745;55.914;37.554;2023-02-13T08:11:46;98741.81;;;2.04;55.32
31088;BME280;17745;55.914;37.554;2023-02-13T08:14:28;98746.06;;;1.98;55.41
31088;BME280;17745;55.914;37.554;2023-02-13T08:17:22;98740.81;;;2.05;55.41
31088;BME280;17745;55.914;37.554;2023-02-13T08:20:08;98727.13;;;2.03;55.33
31088;BME280;17745;55.914;37.554;2023-02-13T08:22:40;98720.56;;;1.94;55.34
31088;BME280;17745;55.914;37.554;2023-02-13T08:25:25;98729.56;;;1.98;55.27
31088;BME280;17745;55.914;37.554;2023-02-13T08:28:29;98729.75;;;2.03;55.18
31088;BME280;17745;55.914;37.554;2023-02-13T08:31:15;98714.72;;;1.98;55.46
31088;BME280;17745;55.914;37.554;2023-02-13T08:34:25;98704.63;;;2.02;55.40
31088;BME280;17745;55.914;37.554;2023-02-13T08:37:17;98707.91;;;1.97;55.62
31088;BME280;17745;55.914;37.554;2023-02-13T08:40:21;98694.62;;;1.99;55.65
31088;BME280;17745;55.914;37.554;2023-02-13T08:42:59;98701.41;;;2.07;55.50
31088;BME280;17745;55.914;37.554;2023-02-13T08:45:34;98694.41;;;2.07;55.46
31088;BME280;17745;55.914;37.554;2023-02-13T08:48:26;98691.72;;;2.14;55.57
31088;BME280;17745;55.914;37.554;2023-02-13T08:54:41;98689.97;;;2.40;54.83
31088;BME280;17745;55.914;37.554;2023-02-13T08:57:47;98679.84;;;2.50;54.56
31088;BME280;17745;55.914;37.554;2023-02-13T09:01:02;98681.81;;;2.55;54.55
31088;BME280;17745;55.914;37.554;2023-02-13T09:04:02;98679.97;;;2.37;54.76
31088;BME280;17745;55.914;37.554;2023-02-13T09:07:05;98681.78;;;2.29;54.82
31088;BME280;17745;55.914;37.554;2023-02-13T09:16:53;98662.84;;;2.41;55.04
31088;BME280;17745;55.914;37.554;2023-02-13T09:19:50;98663.19;;;2.45;55.20
31088;BME280;17745;55.914;37.554;2023-02-13T09:22:49;98658.47;;;2.60;55.14
31088;BME280;17745;55.914;37.554;2023-02-13T09:25:40;98655.66;;;2.87;55.05
31088;BME280;17745;55.914;37.554;2023-02-13T09:29:13;98650.59;;;3.11;54.94
31088;BME280;17745;55.914;37.554;2023-02-13T09:32:30;98631.34;;;3.24;54.86
31088;BME280;17745;55.914;37.554;2023-02-13T09:35:02;98632.28;;;3.48;54.78
31088;BME280;17745;55.914;37.554;2023-02-13T09:37:32;98637.16;;;3.75;54.72
31088;BME280;17745;55.914;37.554;2023-02-13T09:40:05;98622.66;;;3.91;54.25
31088;BME280;17745;55.914;37.554;2023-02-13T09:42:39;98609.78;;;3.90;54.29
31088;BME280;17745;55.914;37.554;2023-02-13T09:45:35;98609.31;;;3.81;54.66
31088;BME280;17745;55.914;37.554;2023-02-13T09:48:28;98610.31;;;3.80;54.66
31088;BME280;17745;55.914;37.554;2023-02-13T09:51:17;98605.84;;;3.68;54.90
31088;BME280;17745;55.914;37.554;2023-02-13T09:53:59;98608.91;;;3.65;54.92
31088;BME280;17745;55.914;37.554;2023-02-13T09:57:38;98608.31;;;3.63;54.77
31088;BME280;17745;55.914;37.554;2023-02-13T10:01:46;98604.56;;;3.59;54.81
31088;BME280;17745;55.914;37.554;2023-02-13T10:04:56;98599.00;;;3.67;54.55
31088;BME280;17745;55.914;37.554;2023-02-13T10:07:35;98601.50;;;3.62;54.56
31088;BME280;17745;55.914;37.554;2023-02-13T10:10:36;98594.22;;;3.64;54.55
31088;BME280;17745;55.914;37.554;2023-02-13T10:13:29;98591.87;;;3.56;54.51
31088;BME280;17745;55.914;37.554;2023-02-13T10:16:16;98595.91;;;3.40;54.85
31088;BME280;17745;55.914;37.554;2023-02-13T10:18:52;98596.72;;;3.40;54.97
31088;BME280;17745;55.914;37.554;2023-02-13T10:21:50;98591.63;;;3.46;54.72
31088;BME280;17745;55.914;37.554;2023-02-13T10:24:32;98593.75;;;3.37;54.77
31088;BME280;17745;55.914;37.554;2023-02-13T10:27:15;98583.06;;;3.38;55.00
31088;BME280;17745;55.914;37.554;2023-02-13T10:30:05;98574.91;;;3.47;54.92
31088;BME280;17745;55.914;37.554;2023-02-13T10:32:45;98582.81;;;3.58;55.01
31088;BME280;17745;55.914;37.554;2023-02-13T10:35:50;98557.72;;;3.81;54.57
31088;BME280;17745;55.914;37.554;2023-02-13T10:38:43;98565.00;;;3.79;54.46
31088;BME280;17745;55.914;37.554;2023-02-13T10:41:38;98556.03;;;3.87;54.63
31088;BME280;17745;55.914;37.554;2023-02-13T10:44:39;98548.00;;;4.00;54.34
31088;BME280;17745;55.914;37.554;2023-02-13T10:47:36;98546.72;;;4.15;53.92
31088;BME280;17745;55.914;37.554;2023-02-13T10:50:25;98531.47;;;4.12;54.28
31088;BME280;17745;55.914;37.554;2023-02-13T10:53:20;98534.81;;;4.31;54.31
31088;BME280;17745;55.914;37.554;2023-02-13T11:14:08;98511.97;;;4.67;54.30
31088;BME280;17745;55.914;37.554;2023-02-13T11:17:18;98523.94;;;4.63;54.36
31088;BME280;17745;55.914;37.554;2023-02-13T11:20:41;98517.91;;;4.63;54.43
31088;BME280;17745;55.914;37.554;2023-02-13T11:24:01;98518.16;;;4.49;54.64
31088;BME280;17745;55.914;37.554;2023-02-13T11:27:09;98510.06;;;4.27;54.91
31088;BME280;17745;55.914;37.554;2023-02-13T11:30:33;98501.63;;;4.25;55.03
31088;BME280;17745;55.914;37.554;2023-02-13T11:33:30;98490.81;;;4.21;54.89
31088;BME280;17745;55.914;37.554;2023-02-13T11:36:23;98484.56;;;4.22;54.97
31088;BME280;17745;55.914;37.554;2023-02-13T11:39:27;98475.22;;;4.26;54.90
31088;BME280;17745;55.914;37.554;2023-02-13T11:42:28;98479.19;;;4.17;55.08
31088;BME280;17745;55.914;37.554;2023-02-13T11:48:37;98474.38;;;4.38;54.89
31088;BME280;17745;55.914;37.554;2023-02-13T11:51:37;98463.09;;;4.49;54.84
31088;BME280;17745;55.914;37.554;2023-02-13T11:54:54;98470.25;;;4.66;54.90
31088;BME280;17745;55.914;37.554;2023-02-13T11:58:20;98465.34;;;4.81;54.62
31088;BME280;17745;55.914;37.554;2023-02-13T12:01:33;98460.81;;;4.94;54.45
31088;BME280;17745;55.914;37.554;2023-02-13T12:04:33;98446.59;;;4.90;54.52
31088;BME280;17745;55.914;37.554;2023-02-13T12:07:19;98442.97;;;4.79;54.77
31088;BME280;17745;55.914;37.554;2023-02-13T12:10:20;98438.41;;;4.74;54.80
31088;BME280;17745;55.914;37.554;2023-02-13T12:13:19;98440.47;;;4.72;54.86
31088;BME280;17745;55.914;37.554;2023-02-13T12:16:28;98441.59;;;4.76;54.81
31088;BME280;17745;55.914;37.554;2023-02-13T12:19:48;98439.78;;;4.77;54.73
31088;BME280;17745;55.914;37.554;2023-02-13T12:22:32;98439.22;;;4.75;54.67
31088;BME280;17745;55.914;37.554;2023-02-13T12:25:42;98437.25;;;4.82;54.48
31088;BME280;17745;55.914;37.554;2023-02-13T12:28:56;98431.97;;;4.94;54.35
31088;BME280;17745;55.914;37.554;2023-02-13T12:32:10;98418.81;;;5.06;54.43
31088;BME280;17745;55.914;37.554;2023-02-13T12:35:21;98432.25;;;5.09;54.36
31088;BME280;17745;55.914;37.554;2023-02-13T12:38:06;98427.97;;;5.03;54.41
31088;BME280;17745;55.914;37.554;2023-02-13T12:47:09;98403.81;;;4.89;54.56
31088;BME280;17745;55.914;37.554;2023-02-13T12:50:36;98396.53;;;4.91;54.50
31088;BME280;17745;55.914;37.554;2023-02-13T12:53:38;98378.41;;;4.90;54.44
31088;BME280;17745;55.914;37.554;2023-02-13T12:56:41;98387.38;;;4.94;54.22
31088;BME280;17745;55.914;37.554;2023-02-13T12:59:34;98372.66;;;4.93;54.37
31088;BME280;17745;55.914;37.554;2023-02-13T13:05:28;98370.09;;;4.81;54.63
31088;BME280;17745;55.914;37.554;2023-02-13T13:11:21;98372.94;;;4.79;54.48
31088;BME280;17745;55.914;37.554;2023-02-13T13:14:19;98375.41;;;4.69;54.76
31088;BME280;17745;55.914;37.554;2023-02-13T13:17:14;98367.88;;;4.72;54.71
31088;BME280;17745;55.914;37.554;2023-02-13T13:20:05;98370.25;;;4.74;54.69
31088;BME280;17745;55.914;37.554;2023-02-13T13:23:10;98370.37;;;4.67;54.85
31088;BME280;17745;55.914;37.554;2023-02-13T13:29:14;98370.84;;;4.64;54.86
31088;BME280;17745;55.914;37.554;2023-02-13T13:31:52;98372.31;;;4.72;54.69
31088;BME280;17745;55.914;37.554;2023-02-13T13:34:42;98367.66;;;4.62;54.88
31088;BME280;17745;55.914;37.554;2023-02-13T13:37:27;98356.75;;;4.53;55.05
31088;BME280;17745;55.914;37.554;2023-02-13T13:40:25;98355.16;;;4.52;55.24
31088;BME280;17745;55.914;37.554;2023-02-13T13:43:17;98354.22;;;4.58;55.14
31088;BME280;17745;55.914;37.554;2023-02-13T13:46:26;98344.75;;;4.57;55.24
31088;BME280;17745;55.914;37.554;2023-02-13T13:49:29;98341.78;;;4.66;55.03
31088;BME280;17745;55.914;37.554;2023-02-13T13:52:19;98352.28;;;4.66;55.08
31088;BME280;17745;55.914;37.554;2023-02-13T13:55:08;98336.69;;;4.59;55.14
31088;BME280;17745;55.914;37.554;2023-02-13T13:57:58;98336.12;;;4.57;55.19
31088;BME280;17745;55.914;37.554;2023-02-13T14:00:41;98339.81;;;4.44;55.49
31088;BME280;17745;55.914;37.554;2023-02-13T14:03:34;98337.31;;;4.37;55.59
31088;BME280;17745;55.914;37.554;2023-02-13T14:06:11;98334.25;;;4.40;55.66
31088;BME280;17745;55.914;37.554;2023-02-13T14:09:10;98334.84;;;4.31;55.86
31088;BME280;17745;55.914;37.554;2023-02-13T14:12:43;98325.75;;;4.21;56.04
31088;BME280;17745;55.914;37.554;2023-02-13T14:15:50;98317.66;;;4.23;56.10
31088;BME280;17745;55.914;37.554;2023-02-13T14:18:34;98322.66;;;4.24;55.83
31088;BME280;17745;55.914;37.554;2023-02-13T14:21:33;98313.00;;;4.13;56.11
31088;BME280;17745;55.914;37.554;2023-02-13T14:24:17;98320.78;;;4.08;56.31
31088;BME280;17745;55.914;37.554;2023-02-13T14:27:27;98316.09;;;4.10;56.32
31088;BME280;17745;55.914;37.554;2023-02-13T14:30:47;98320.56;;;4.09;56.53
31088;BME280;17745;55.914;37.554;2023-02-13T14:37:20;98298.44;;;4.05;56.71
31088;BME280;17745;55.914;37.554;2023-02-13T14:43:46;98303.47;;;4.07;56.87
31088;BME280;17745;55.914;37.554;2023-02-13T14:46:40;98295.59;;;4.07;56.94
31088;BME280;17745;55.914;37.554;2023-02-13T14:49:47;98293.87;;;4.12;56.92
31088;BME280;17745;55.914;37.554;2023-02-13T14:58:53;98283.34;;;4.53;56.63
31088;BME280;17745;55.914;37.554;2023-02-13T15:01:48;98266.13;;;3.99;57.52
31088;BME280;17745;55.914;37.554;2023-02-13T15:04:33;98258.72;;;4.08;57.39
31088;BME280;17745;55.914;37.554;2023-02-13T15:07:20;98256.31;;;4.07;57.45
31088;BME280;17745;55.914;37.554;2023-02-13T15:10:29;98242.75;;;4.10;57.49
31088;BME280;17745;55.914;37.554;2023-02-13T15:13:14;98231.09;;;4.18;57.41
31088;BME280;17745;55.914;37.554;2023-02-13T15:16:12;98229.03;;;4.20;57.41
31088;BME280;17745;55.914;37.554;2023-02-13T15:18:53;98223.81;;;4.20;57.44
31088;BME280;17745;55.914;37.554;2023-02-13T15:21:33;98215.38;;;4.18;57.54
31088;BME280;17745;55.914;37.554;2023-02-13T15:24:43;98223.38;;;4.11;57.67
31088;BME280;17745;55.914;37.554;2023-02-13T15:27:25;98221.72;;;4.05;57.95
31088;BME280;17745;55.914;37.554;2023-02-13T15:30:23;98232.06;;;4.11;57.84
31088;BME280;17745;55.914;37.554;2023-02-13T15:43:57;98190.91;;;4.12;57.98
31088;BME280;17745;55.914;37.554;2023-02-13T15:47:00;98180.75;;;3.98;58.42
31088;BME280;17745;55.914;37.554;2023-02-13T15:49:56;98178.81;;;3.94;58.50
31088;BME280;17745;55.914;37.554;2023-02-13T15:52:39;98177.22;;;3.93;58.51
31088;BME280;17745;55.914;37.554;2023-02-13T15:55:25;98178.34;;;3.97;58.50
31088;BME280;17745;55.914;37.554;2023-02-13T16:02:49;98171.84;;;3.99;58.87
31088;BME280;17745;55.914;37.554;2023-02-13T16:05:55;98168.56;;;3.92;58.87
31088;BME280;17745;55.914;37.554;2023-02-13T16:08:37;98161.66;;;3.86;59.11
31088;BME280;17745;55.914;37.554;2023-02-13T16:11:42;98151.66;;;3.83;59.24
31088;BME280;17745;55.914;37.554;2023-02-13T16:14:59;98159.94;;;3.92;59.25
31088;BME280;17745;55.914;37.554;2023-02-13T16:17:39;98149.75;;;3.95;59.19
31088;BME280;17745;55.914;37.554;2023-02-13T16:20:27;98143.03;;;3.99;59.20
31088;BME280;17745;55.914;37.554;2023-02-13T16:23:12;98125.03;;;4.03;59.24
31088;BME280;17745;55.914;37.554;2023-02-13T16:26:16;98131.06;;;4.04;59.23
31088;BME280;17745;55.914;37.554;2023-02-13T16:29:26;98117.00;;;4.10;59.20
31088;BME280;17745;55.914;37.554;2023-02-13T16:32:27;98115.03;;;4.17;59.14
31088;BME280;17745;55.914;37.554;2023-02-13T16:35:38;98095.66;;;4.18;59.22
31088;BME280;17745;55.914;37.554;2023-02-13T16:38:40;98096.13;;;4.15;59.29
31088;BME280;17745;55.914;37.554;2023-02-13T16:41:45;98115.62;;;4.19;59.22
31088;BME280;17745;55.914;37.554;2023-02-13T16:45:23;98092.34;;;4.23;59.21
31088;BME280;17745;55.914;37.554;2023-02-13T16:48:19;98077.50;;;4.28;59.14
31088;BME280;17745;55.914;37.554;2023-02-13T16:54:58;98076.53;;;4.35;59.19
31088;BME280;17745;55.914;37.554;2023-02-13T16:57:47;98078.13;;;4.36;59.22
31088;BME280;17745;55.914;37.554;2023-02-13T17:00:32;98069.78;;;4.39;59.12
31088;BME280;17745;55.914;37.554;2023-02-13T17:03:39;98074.56;;;4.42;59.15
31088;BME280;17745;55.914;37.554;2023-02-13T17:06:18;98075.34;;;4.42;59.17
31088;BME280;17745;55.914;37.554;2023-02-13T17:08:59;98064.56;;;4.39;59.22
31088;BME280;17745;55.914;37.554;2023-02-13T17:11:38;98063.03;;;4.43;59.21
31088;BME280;17745;55.914;37.554;2023-02-13T17:14:23;98067.78;;;4.46;59.23
31088;BME280;17745;55.914;37.554;2023-02-13T17:17:20;98055.94;;;4.43;59.20
31088;BME280;17745;55.914;37.554;2023-02-13T17:20:29;98052.84;;;4.47;59.24
31088;BME280;17745;55.914;37.554;2023-02-13T17:23:17;98042.37;;;4.47;59.28
31088;BME280;17745;55.914;37.554;2023-02-13T17:26:01;98036.91;;;4.48;59.30
31088;BME280;17745;55.914;37.554;2023-02-13T17:29:07;98030.84;;;4.48;59.23
31088;BME280;17745;55.914;37.554;2023-02-13T17:31:58;98020.84;;;4.44;59.47
31088;BME280;17745;55.914;37.554;2023-02-13T17:34:32;98012.37;;;4.37;59.66
31088;BME280;17745;55.914;37.554;2023-02-13T17:37:11;98017.28;;;4.34;59.72
31088;BME280;17745;55.914;37.554;2023-02-13T17:39:51;98005.94;;;4.28;59.93
31088;BME280;17745;55.914;37.554;2023-02-13T17:42:43;98001.34;;;4.35;59.86
31088;BME280;17745;55.914;37.554;2023-02-13T17:45:53;97994.25;;;4.36;59.77
31088;BME280;17745;55.914;37.554;2023-02-13T18:06:38;97975.47;;;4.22;60.49
31088;BME280;17745;55.914;37.554;2023-02-13T18:10:09;97973.66;;;4.22;60.48
31088;BME280;17745;55.914;37.554;2023-02-13T18:13:14;97972.91;;;4.27;60.40
31088;BME280;17745;55.914;37.554;2023-02-13T18:16:12;97959.81;;;4.27;60.41
31088;BME280;17745;55.914;37.554;2023-02-13T18:19:24;97961.66;;;4.26;60.47
31088;BME280;17745;55.914;37.554;2023-02-13T18:29:54;97947.53;;;4.27;60.53
31088;BME280;17745;55.914;37.554;2023-02-13T18:33:15;97931.19;;;4.20;60.67
31088;BME280;17745;55.914;37.554;2023-02-13T18:36:45;97928.09;;;4.23;60.72
31088;BME280;17745;55.914;37.554;2023-02-13T18:39:38;97919.75;;;4.26;60.70
31088;BME280;17745;55.914;37.554;2023-02-13T18:43:04;97912.37;;;4.23;60.84
31088;BME280;17745;55.914;37.554;2023-02-13T20:07:15;97847.28;;;3.02;67.05
31088;BME280;17745;55.914;37.554;2023-02-13T20:10:24;97838.81;;;2.66;69.23
31088;BME280;17745;55.914;37.554;2023-02-13T20:13:13;97848.28;;;2.55;69.41
31088;BME280;17745;55.914;37.554;2023-02-13T20:15:46;97844.25;;;2.64;69.65
31088;BME280;17745;55.914;37.554;2023-02-13T20:18:14;97840.72;;;2.70;69.27
31088;BME280;17745;55.914;37.554;2023-02-13T20:20:49;97843.47;;;2.64;69.59
31088;BME280;17745;55.914;37.554;2023-02-13T20:23:25;97856.97;;;1.79;72.71
31088;BME280;17745;55.914;37.554;2023-02-13T20:25:56;97837.88;;;1.78;73.31
31088;BME280;17745;55.914;37.554;2023-02-13T20:28:28;97861.69;;;1.22;75.24
31088;BME280;17745;55.914;37.554;2023-02-13T20:30:58;97854.00;;;1.63;74.57
31088;BME280;17745;55.914;37.554;2023-02-13T20:33:48;97858.78;;;1.54;74.50
31088;BME280;17745;55.914;37.554;2023-02-13T20:36:29;97875.34;;;0.94;76.68
31088;BME280;17745;55.914;37.554;2023-02-13T20:39:09;97880.66;;;0.87;76.97
31088;BME280;17745;55.914;37.554;2023-02-13T20:41:39;97856.84;;;1.74;74.08
31088;BME280;17745;55.914;37.554;2023-02-13T20:44:16;97859.22;;;1.39;75.04
31088;BME280;17745;55.914;37.554;2023-02-13T20:46:47;97855.19;;;2.20;72.62
31088;BME280;17745;55.914;37.554;2023-02-13T20:49:26;97865.66;;;2.20;72.50
31088;BME280;17745;55.914;37.554;2023-02-13T20:52:00;97856.47;;;2.76;70.67
31088;BME280;17745;55.914;37.554;2023-02-13T20:54:36;97866.00;;;2.53;71.07
31088;BME280;17745;55.914;37.554;2023-02-13T20:57:05;97857.78;;;2.90;70.26
31088;BME280;17745;55.914;37.554;2023-02-13T20:59:33;97859.41;;;2.50;71.57
31088;BME280;17745;55.914;37.554;2023-02-13T21:02:01;97858.69;;;2.67;70.78
31088;BME280;17745;55.914;37.554;2023-02-13T21:04:30;97879.59;;;2.26;72.74
31088;BME280;17745;55.914;37.554;2023-02-13T21:07:01;97849.69;;;1.93;73.85
31088;BME280;17745;55.914;37.554;2023-02-13T21:09:38;97846.91;;;2.23;72.86
31088;BME280;17745;55.914;37.554;2023-02-13T21:12:15;97879.56;;;2.38;72.41
31088;BME280;17745;55.914;37.554;2023-02-13T21:14:44;97869.88;;;2.09;72.66
31088;BME280;17745;55.914;37.554;2023-02-13T21:17:12;97874.03;;;2.22;73.04
31088;BME280;17745;55.914;37.554;2023-02-13T21:19:44;97864.03;;;2.60;71.59
31088;BME280;17745;55.914;37.554;2023-02-13T21:22:15;97874.47;;;2.31;71.73
31088;BME280;17745;55.914;37.554;2023-02-13T21:24:48;97871.28;;;2.41;71.65
31088;BME280;17745;55.914;37.554;2023-02-13T21:27:19;97868.16;;;2.56;71.24
31088;BME280;17745;55.914;37.554;2023-02-13T21:29:49;97861.91;;;2.86;70.12
31088;BME280;17745;55.914;37.554;2023-02-13T21:32:19;97864.12;;;2.36;71.24
31088;BME280;17745;55.914;37.554;2023-02-13T21:34:47;97860.03;;;1.76;73.40